Terminal Aerodrome Forecast
Issued by NWS

Home | Current Version | Previous Version | Graphics & Text | Print | Product List | Glossary On
Versions: 1 2 3 4 5 6 7 8 9 10 11 12 13 14 15
000
FTUS45 KRIW 300528
TAFBPI
TAF
KBPI 300528Z 3006/0106 34007KT P6SM FEW100
     FM301800 32016G26KT P6SM SCT050 BKN100
     FM010100 33010KT P6SM BKN060=

USA.gov is the U.S. government's official web portal to all federal, state and local government web resources and services.